Time;durP1;ratioP1;P1;durP2;ratioP2;P2;SDS_P1;SDS_P2;PMS_P1;PMS_P2;Temp;Humidity;BMP_temperature;BMP_pressure;BME280_temperature;BME280_humidity;BME280_pressure;Samples;Min_cycle;Max_cycle;Signal;HPM_P1;HPM_P2
2023/04/27 00:01:10;;;;;;;5.18;3.63;;;9.50;99.90;;;;;;5058542;28;20021;-71
2023/04/27 00:03:36;;;;;;;6.88;2.55;;;9.50;99.90;;;;;;5058440;28;20021;-71
2023/04/27 00:06:02;;;;;;;7.93;3.05;;;9.50;99.90;;;;;;5057796;28;20025;-71
2023/04/27 00:08:28;;;;;;;6.05;3.22;;;9.40;99.90;;;;;;5057731;28;20021;-71
2023/04/27 00:10:53;;;;;;;5.70;2.90;;;9.50;99.90;;;;;;5057763;28;20025;-71
2023/04/27 00:13:19;;;;;;;9.35;3.58;;;9.50;99.90;;;;;;5057733;28;20088;-71
2023/04/27 00:15:44;;;;;;;16.92;3.75;;;9.40;99.90;;;;;;5057586;28;20032;-71
2023/04/27 00:18:10;;;;;;;9.73;3.80;;;9.40;99.90;;;;;;5057576;28;20021;-71
2023/04/27 00:20:35;;;;;;;11.48;3.30;;;9.40;99.90;;;;;;5058176;28;20021;-71
2023/04/27 00:23:01;;;;;;;6.75;3.13;;;9.40;99.90;;;;;;5057569;28;20066;-71
2023/04/27 00:25:27;;;;;;;10.32;3.50;;;9.50;99.90;;;;;;5057644;28;20020;-71
2023/04/27 00:27:52;;;;;;;8.70;3.72;;;9.50;99.90;;;;;;5058051;28;20028;-71
2023/04/27 00:30:18;;;;;;;7.97;3.42;;;9.50;99.90;;;;;;5057428;28;20045;-71
2023/04/27 00:32:43;;;;;;;7.25;3.50;;;9.50;99.90;;;;;;5057097;28;20060;-71
2023/04/27 00:35:09;;;;;;;5.93;3.20;;;9.50;99.90;;;;;;5056899;28;20048;-71
2023/04/27 00:37:35;;;;;;;16.52;3.30;;;9.40;99.90;;;;;;5057194;28;20029;-71
2023/04/27 00:40:03;;;;;;;9.18;3.85;;;9.40;99.90;;;;;;5056910;28;20021;-71
2023/04/27 00:42:29;;;;;;;4.80;2.97;;;9.40;99.90;;;;;;5057274;28;20033;-71
2023/04/27 00:44:57;;;;;;;7.03;3.47;;;9.30;99.90;;;;;;5056887;28;20152;-71
2023/04/27 00:47:23;;;;;;;8.48;3.53;;;9.20;99.90;;;;;;5057131;28;20111;-71
2023/04/27 00:49:49;;;;;;;7.20;3.10;;;9.10;99.90;;;;;;5057064;28;20067;-71
2023/04/27 00:52:14;;;;;;;6.43;3.42;;;9.10;99.90;;;;;;5057216;28;20051;-71
2023/04/27 00:54:40;;;;;;;9.73;3.53;;;9.10;99.90;;;;;;5056734;28;20111;-71
2023/04/27 00:57:06;;;;;;;7.35;3.30;;;9.10;99.90;;;;;;5056659;28;20021;-71
2023/04/27 00:59:32;;;;;;;10.90;3.75;;;9.10;99.90;;;;;;5056766;28;20021;-71
2023/04/27 01:01:58;;;;;;;6.88;3.75;;;9.10;99.90;;;;;;5056885;28;20071;-71
2023/04/27 01:04:24;;;;;;;7.32;3.50;;;9.00;99.90;;;;;;5056708;28;20025;-71
2023/04/27 01:06:50;;;;;;;10.07;3.88;;;9.00;99.90;;;;;;5057257;28;20025;-71
2023/04/27 01:09:18;;;;;;;6.32;4.07;;;8.90;99.90;;;;;;5056797;28;20029;-71
2023/04/27 01:11:44;;;;;;;11.52;3.80;;;8.90;99.90;;;;;;5056796;28;20025;-71
2023/04/27 01:14:10;;;;;;;14.40;3.58;;;8.90;99.90;;;;;;5057038;28;20025;-71
2023/04/27 01:16:36;;;;;;;8.55;4.28;;;8.80;99.90;;;;;;5056226;28;20035;-71
2023/04/27 01:19:02;;;;;;;8.60;3.60;;;8.90;99.90;;;;;;5056470;28;20021;-71
2023/04/27 01:21:28;;;;;;;7.38;3.13;;;8.90;99.90;;;;;;5056408;28;20029;-71
2023/04/27 01:23:54;;;;;;;9.55;4.10;;;8.80;99.90;;;;;;5056618;28;20025;-71
2023/04/27 01:26:20;;;;;;;6.75;3.50;;;8.80;99.90;;;;;;5056409;28;20021;-71
2023/04/27 01:28:45;;;;;;;10.13;4.15;;;8.80;99.90;;;;;;5057065;28;20031;-71
2023/04/27 01:31:11;;;;;;;8.02;3.40;;;8.80;99.90;;;;;;5056905;28;20108;-71
2023/04/27 01:33:38;;;;;;;8.48;3.90;;;8.70;99.90;;;;;;5056106;28;20029;-71
2023/04/27 01:36:04;;;;;;;8.70;3.35;;;8.70;99.90;;;;;;5056251;28;20017;-71
2023/04/27 01:38:31;;;;;;;11.93;4.20;;;8.70;99.90;;;;;;5056270;28;20072;-71
2023/04/27 01:41:00;;;;;;;11.57;3.85;;;8.60;99.90;;;;;;5056312;28;20090;-71
2023/04/27 01:43:27;;;;;;;8.15;3.45;;;8.50;99.90;;;;;;5056280;28;20024;-71
2023/04/27 01:45:52;;;;;;;6.75;3.92;;;8.50;99.90;;;;;;5056256;28;20057;-71
2023/04/27 01:48:18;;;;;;;8.52;3.40;;;8.50;99.90;;;;;;5056025;28;20075;-71
2023/04/27 01:50:43;;;;;;;7.32;3.58;;;8.50;99.90;;;;;;5055653;28;20028;-71
2023/04/27 01:53:09;;;;;;;8.57;3.85;;;8.40;99.90;;;;;;5057288;28;20025;-71
2023/04/27 01:55:34;;;;;;;5.72;3.78;;;8.50;99.90;;;;;;5060953;28;20025;-71
2023/04/27 01:58:00;;;;;;;9.30;3.85;;;8.40;99.90;;;;;;5060245;28;20055;-71
2023/04/27 02:00:25;;;;;;;11.52;4.13;;;8.40;99.90;;;;;;5060255;28;20017;-71
2023/04/27 02:02:52;;;;;;;8.82;3.90;;;8.40;99.90;;;;;;5059891;28;20036;-71
2023/04/27 02:05:18;;;;;;;10.52;3.53;;;8.30;99.90;;;;;;5059866;28;20029;-71
2023/04/27 02:07:44;;;;;;;12.10;4.22;;;8.20;99.90;;;;;;5059865;28;20093;-71
2023/04/27 02:10:09;;;;;;;12.63;4.00;;;8.30;99.90;;;;;;5060076;28;20059;-70
2023/04/27 02:12:35;;;;;;;6.97;4.55;;;8.20;99.90;;;;;;5060458;28;20040;-71
2023/04/27 02:15:02;;;;;;;12.02;3.53;;;8.20;99.90;;;;;;5060650;28;20040;-70
2023/04/27 02:17:28;;;;;;;6.20;3.65;;;8.20;99.90;;;;;;5060313;28;20050;-70
2023/04/27 02:19:54;;;;;;;8.43;3.72;;;8.20;99.90;;;;;;5060445;28;20021;-71
2023/04/27 02:22:19;;;;;;;7.50;3.50;;;8.30;99.90;;;;;;5059851;28;20126;-71
2023/04/27 02:24:45;;;;;;;8.20;4.13;;;8.30;99.90;;;;;;5059882;28;20056;-70
2023/04/27 02:27:11;;;;;;;6.90;3.92;;;8.20;99.90;;;;;;5060480;28;20031;-70
2023/04/27 02:29:37;;;;;;;7.45;3.72;;;8.20;99.90;;;;;;5059435;28;20112;-70
2023/04/27 02:32:05;;;;;;;9.25;4.20;;;8.20;99.90;;;;;;5059829;28;20055;-70
2023/04/27 02:34:30;;;;;;;7.72;3.58;;;8.20;99.90;;;;;;5059882;28;20025;-70
2023/04/27 02:36:56;;;;;;;10.80;3.88;;;8.30;99.90;;;;;;5059511;28;20048;-70
2023/04/27 02:39:21;;;;;;;11.18;3.65;;;8.30;99.90;;;;;;5059236;28;20116;-70
2023/04/27 02:41:47;;;;;;;10.18;4.20;;;8.30;99.90;;;;;;5059239;28;20056;-70
2023/04/27 02:44:12;;;;;;;11.63;4.13;;;8.30;99.90;;;;;;5058839;28;20025;-70
2023/04/27 02:46:38;;;;;;;10.90;3.58;;;8.20;99.90;;;;;;5060177;28;20028;-70
2023/04/27 02:49:03;;;;;;;7.68;3.92;;;8.20;99.90;;;;;;5059022;28;20029;-70
2023/04/27 02:51:29;;;;;;;11.98;3.85;;;8.20;99.90;;;;;;5059631;28;20028;-70
2023/04/27 02:53:55;;;;;;;10.57;4.70;;;8.20;99.90;;;;;;5059885;28;20021;-70
2023/04/27 02:56:20;;;;;;;7.88;3.80;;;8.20;99.90;;;;;;5058934;28;20052;-70
2023/04/27 02:58:46;;;;;;;9.88;4.10;;;8.20;99.90;;;;;;5059199;28;20025;-70
2023/04/27 03:01:13;;;;;;;9.10;3.97;;;8.20;99.90;;;;;;5059032;28;20025;-70
2023/04/27 03:03:39;;;;;;;9.63;4.15;;;8.20;99.90;;;;;;5059236;28;20116;-70
2023/04/27 03:06:05;;;;;;;10.73;4.03;;;8.20;99.90;;;;;;5058614;28;20047;-70
2023/04/27 03:08:30;;;;;;;7.93;4.07;;;8.20;99.90;;;;;;5059728;28;20021;-70
2023/04/27 03:10:56;;;;;;;7.13;4.05;;;8.20;99.90;;;;;;5058698;28;20017;-70
2023/04/27 03:13:21;;;;;;;7.97;4.72;;;8.20;99.90;;;;;;5059399;28;20021;-70
2023/04/27 03:15:47;;;;;;;8.15;4.10;;;8.10;99.90;;;;;;5058757;28;20017;-71
2023/04/27 03:18:12;;;;;;;10.07;4.25;;;8.10;99.90;;;;;;5059017;28;20021;-70
2023/04/27 03:20:38;;;;;;;5.82;3.85;;;8.10;99.90;;;;;;5058800;28;20056;-70
2023/04/27 03:23:04;;;;;;;7.63;3.80;;;8.00;99.90;;;;;;5059305;28;20052;-70
2023/04/27 03:25:29;;;;;;;9.02;4.43;;;8.00;99.90;;;;;;5058588;28;20060;-70
2023/04/27 03:27:55;;;;;;;7.55;4.07;;;8.00;99.90;;;;;;5058263;28;20082;-70
2023/04/27 03:30:21;;;;;;;6.45;4.47;;;8.00;99.90;;;;;;5058333;28;20025;-70
2023/04/27 03:32:46;;;;;;;9.70;5.00;;;7.90;99.90;;;;;;5058529;28;20036;-70
2023/04/27 03:35:12;;;;;;;13.27;3.80;;;7.90;99.90;;;;;;5058354;28;20025;-70
2023/04/27 03:37:38;;;;;;;9.88;4.43;;;7.80;99.90;;;;;;5058960;28;20057;-70
2023/04/27 03:40:06;;;;;;;6.53;4.35;;;7.80;99.90;;;;;;5058327;28;20085;-70
2023/04/27 03:42:31;;;;;;;7.85;4.80;;;7.80;99.90;;;;;;5058374;28;20018;-70
2023/04/27 03:44:57;;;;;;;8.65;4.38;;;7.70;99.90;;;;;;5058019;28;20036;-70
2023/04/27 03:47:22;;;;;;;15.75;4.60;;;7.70;99.90;;;;;;5058394;28;20025;-70
2023/04/27 03:49:48;;;;;;;7.13;4.38;;;7.80;99.90;;;;;;5058192;28;20033;-70
2023/04/27 03:52:13;;;;;;;8.68;4.63;;;7.80;99.90;;;;;;5058310;28;20145;-74
2023/04/27 03:54:39;;;;;;;7.65;4.15;;;7.70;99.90;;;;;;5058381;28;20032;-74
2023/04/27 03:57:05;;;;;;;13.00;4.20;;;7.70;99.90;;;;;;5058217;28;20029;-74
2023/04/27 03:59:30;;;;;;;9.82;4.45;;;7.80;99.90;;;;;;5057689;28;20021;-74
2023/04/27 04:01:56;;;;;;;6.32;3.95;;;7.80;99.90;;;;;;5057931;28;20162;-74
2023/04/27 04:04:22;;;;;;;7.07;4.15;;;7.80;99.90;;;;;;5058504;28;20021;-74
2023/04/27 04:06:48;;;;;;;10.20;4.13;;;7.80;99.90;;;;;;5057619;28;20051;-74
2023/04/27 04:09:14;;;;;;;9.10;4.30;;;7.70;99.90;;;;;;5057451;28;20032;-74
2023/04/27 04:11:39;;;;;;;8.60;4.53;;;7.70;99.90;;;;;;5057493;28;20025;-75
2023/04/27 04:14:05;;;;;;;10.40;3.63;;;7.70;99.90;;;;;;5057580;28;20021;-74
2023/04/27 04:16:32;;;;;;;6.30;4.05;;;7.80;99.90;;;;;;5057405;28;20036;-74
2023/04/27 04:18:58;;;;;;;8.82;3.95;;;7.80;99.90;;;;;;5057380;28;20032;-74
2023/04/27 04:21:23;;;;;;;6.95;4.05;;;7.70;99.90;;;;;;5057285;28;20017;-74
2023/04/27 04:23:49;;;;;;;8.82;4.18;;;7.60;99.90;;;;;;5057557;28;20029;-74
2023/04/27 04:26:15;;;;;;;10.55;4.70;;;7.70;99.90;;;;;;5057323;28;20029;-74
2023/04/27 04:28:41;;;;;;;5.65;3.97;;;7.80;99.90;;;;;;5057186;28;20021;-74
2023/04/27 04:31:08;;;;;;;9.13;4.20;;;7.70;99.90;;;;;;5058002;28;20017;-74
2023/04/27 04:33:34;;;;;;;8.85;5.15;;;7.70;99.90;;;;;;5057832;28;20021;-74
2023/04/27 04:36:02;;;;;;;10.38;4.38;;;7.60;99.90;;;;;;5057955;28;20025;-74
2023/04/27 04:38:28;;;;;;;9.13;4.30;;;7.60;99.90;;;;;;5057195;28;20115;-74
2023/04/27 04:40:54;;;;;;;8.75;4.18;;;7.70;99.90;;;;;;5057828;28;20143;-74
2023/04/27 04:43:20;;;;;;;8.60;4.25;;;7.70;99.90;;;;;;5057167;28;20036;-74
2023/04/27 04:45:46;;;;;;;8.45;4.20;;;7.70;99.90;;;;;;5056644;28;20032;-74
2023/04/27 04:48:13;;;;;;;10.88;4.53;;;7.60;99.90;;;;;;5056752;28;20025;-74
2023/04/27 04:50:40;;;;;;;9.85;4.00;;;7.70;99.90;;;;;;5057535;28;20028;-74
2023/04/27 04:53:06;;;;;;;7.55;3.92;;;7.70;99.90;;;;;;5056890;28;20024;-74
2023/04/27 04:55:32;;;;;;;13.15;4.75;;;7.70;99.90;;;;;;5056596;28;20087;-74
2023/04/27 04:57:57;;;;;;;8.40;4.30;;;7.70;99.90;;;;;;5056442;28;20025;-74
2023/04/27 05:00:23;;;;;;;10.50;4.20;;;7.60;99.90;;;;;;5056424;28;20017;-74
2023/04/27 05:02:49;;;;;;;6.78;4.15;;;7.60;99.90;;;;;;5056855;28;20017;-74
2023/04/27 05:05:14;;;;;;;8.18;4.03;;;7.70;99.90;;;;;;5057477;28;20021;-74
2023/04/27 05:07:40;;;;;;;10.52;4.25;;;7.60;99.90;;;;;;5057623;28;20021;-74
2023/04/27 05:10:06;;;;;;;9.30;4.72;;;7.70;99.90;;;;;;5057007;28;20028;-74
2023/04/27 05:12:32;;;;;;;7.53;4.07;;;7.70;99.90;;;;;;5057486;28;20033;-74
2023/04/27 05:14:57;;;;;;;15.35;5.22;;;7.70;99.90;;;;;;5056447;28;20071;-74
2023/04/27 05:17:23;;;;;;;8.80;4.57;;;7.70;99.90;;;;;;5056310;28;20021;-74
2023/04/27 05:19:48;;;;;;;10.10;4.68;;;7.70;99.90;;;;;;5057285;28;20075;-74
2023/04/27 05:22:14;;;;;;;12.23;4.10;;;7.70;99.90;;;;;;5056096;28;20021;-74
2023/04/27 05:24:40;;;;;;;8.27;4.40;;;7.60;99.90;;;;;;5056179;28;20025;-74
2023/04/27 05:27:05;;;;;;;19.55;6.30;;;7.70;99.90;;;;;;5056285;28;20024;-74
2023/04/27 05:29:31;;;;;;;6.82;4.00;;;7.70;99.90;;;;;;5056484;28;20024;-74
2023/04/27 05:31:56;;;;;;;11.27;4.55;;;7.70;99.90;;;;;;5056936;28;20082;-74
2023/04/27 05:34:22;;;;;;;15.32;4.80;;;7.70;99.90;;;;;;5056238;28;20151;-74
2023/04/27 05:36:47;;;;;;;9.82;5.95;;;7.70;99.90;;;;;;5055898;28;20017;-75
2023/04/27 05:39:13;;;;;;;10.38;4.90;;;7.80;99.90;;;;;;5057121;28;20027;-74
2023/04/27 05:41:39;;;;;;;16.90;4.18;;;7.90;99.90;;;;;;5056053;28;20037;-74
2023/04/27 05:44:05;;;;;;;7.18;3.92;;;7.80;99.90;;;;;;5056627;28;20035;-73
2023/04/27 05:46:31;;;;;;;9.18;4.90;;;7.90;99.90;;;;;;5056395;28;20041;-68
2023/04/27 05:48:56;;;;;;;6.90;4.63;;;7.90;99.90;;;;;;5055954;28;20100;-67
2023/04/27 05:51:22;;;;;;;9.18;4.55;;;7.90;99.90;;;;;;5055866;28;20025;-68
2023/04/27 05:53:47;;;;;;;6.47;4.40;;;8.10;99.90;;;;;;5056920;28;20023;-68
2023/04/27 05:56:13;;;;;;;11.32;4.85;;;8.20;99.90;;;;;;5055764;28;20017;-68
2023/04/27 05:58:39;;;;;;;6.63;4.38;;;8.30;99.90;;;;;;5056096;28;20358;-68
2023/04/27 06:01:04;;;;;;;7.22;4.63;;;8.40;99.90;;;;;;5055676;28;20112;-67
2023/04/27 06:03:31;;;;;;;10.23;4.47;;;8.40;99.90;;;;;;5056056;28;20104;-68
2023/04/27 06:05:57;;;;;;;10.48;4.70;;;8.40;99.90;;;;;;5056110;28;20032;-67
2023/04/27 06:08:23;;;;;;;9.02;4.25;;;8.50;99.90;;;;;;5055968;28;20021;-68
2023/04/27 06:10:52;;;;;;;7.60;4.30;;;8.50;99.90;;;;;;5056980;28;20040;-67
2023/04/27 06:13:18;;;;;;;7.05;4.38;;;8.60;99.90;;;;;;5055687;28;20025;-68
2023/04/27 06:15:45;;;;;;;8.70;4.43;;;8.70;99.90;;;;;;5055939;28;20021;-68
2023/04/27 06:18:11;;;;;;;10.10;5.55;;;8.80;99.90;;;;;;5055629;28;20075;-68
2023/04/27 06:20:36;;;;;;;8.95;4.78;;;8.80;99.90;;;;;;5055722;28;20021;-68
2023/04/27 06:23:02;;;;;;;9.88;4.70;;;8.90;99.90;;;;;;5055722;28;20150;-68
2023/04/27 06:25:27;;;;;;;10.82;4.50;;;8.90;99.90;;;;;;5056581;28;20028;-68
2023/04/27 06:27:56;;;;;;;9.45;4.18;;;8.90;99.90;;;;;;5055806;28;20021;-68
2023/04/27 06:30:23;;;;;;;9.18;4.60;;;9.00;99.90;;;;;;5056371;28;20119;-68
2023/04/27 06:32:49;;;;;;;10.23;4.60;;;8.90;99.90;;;;;;5055505;28;20115;-68
2023/04/27 06:35:15;;;;;;;8.75;4.15;;;9.00;99.90;;;;;;5055871;28;20032;-68
2023/04/27 06:37:41;;;;;;;8.93;4.55;;;8.90;99.90;;;;;;5055777;28;20058;-68
2023/04/27 06:40:07;;;;;;;10.80;4.57;;;8.90;99.90;;;;;;5057590;28;20017;-68
2023/04/27 06:42:33;;;;;;;10.55;5.07;;;9.00;99.90;;;;;;5059359;28;20017;-68
2023/04/27 06:44:58;;;;;;;9.60;4.53;;;9.10;99.90;;;;;;5058997;28;20036;-68
2023/04/27 06:47:24;;;;;;;8.07;4.55;;;9.10;99.90;;;;;;5060099;28;20034;-68
2023/04/27 06:49:50;;;;;;;12.25;5.10;;;9.10;99.90;;;;;;5060269;28;20085;-68
2023/04/27 06:52:15;;;;;;;13.98;4.68;;;9.10;99.90;;;;;;5059412;28;20032;-68
2023/04/27 06:54:41;;;;;;;14.00;4.88;;;9.10;99.90;;;;;;5059186;28;20053;-68
2023/04/27 06:57:06;;;;;;;6.93;4.68;;;9.20;99.90;;;;;;5058800;28;20033;-68
2023/04/27 06:59:32;;;;;;;18.00;5.47;;;9.20;99.90;;;;;;5059753;28;20017;-68
2023/04/27 07:01:58;;;;;;;13.90;5.43;;;9.20;99.90;;;;;;5059313;28;20021;-67
2023/04/27 07:04:23;;;;;;;9.32;4.75;;;9.40;99.90;;;;;;5058707;28;20021;-68
2023/04/27 07:06:49;;;;;;;12.25;5.05;;;9.40;99.90;;;;;;5058840;28;20021;-67
2023/04/27 07:09:15;;;;;;;10.15;4.22;;;9.50;99.90;;;;;;5058720;28;20024;-67
2023/04/27 07:11:40;;;;;;;9.52;5.40;;;9.40;99.90;;;;;;5058715;28;20029;-68
2023/04/27 07:14:06;;;;;;;12.20;4.72;;;9.40;99.90;;;;;;5058557;28;20032;-68
2023/04/27 07:16:31;;;;;;;8.40;4.60;;;9.60;99.90;;;;;;5058464;28;20032;-68
2023/04/27 07:18:57;;;;;;;10.13;4.57;;;9.60;99.90;;;;;;5058493;28;20028;-68
2023/04/27 07:21:22;;;;;;;10.77;4.93;;;9.80;99.90;;;;;;5058459;28;20032;-68
2023/04/27 07:23:48;;;;;;;10.90;4.90;;;9.80;99.90;;;;;;5058654;28;20028;-67
2023/04/27 07:26:13;;;;;;;10.05;5.05;;;9.80;99.90;;;;;;5058651;28;20017;-68
2023/04/27 07:28:39;;;;;;;11.82;4.55;;;9.90;99.90;;;;;;5058656;28;20056;-68
2023/04/27 07:31:05;;;;;;;11.05;4.75;;;10.00;99.90;;;;;;5058479;28;20056;-68
2023/04/27 07:33:32;;;;;;;6.63;4.03;;;10.10;99.90;;;;;;5058581;28;20044;-68
2023/04/27 07:35:58;;;;;;;6.97;3.67;;;10.20;99.90;;;;;;5058180;28;20024;-68
2023/04/27 07:38:24;;;;;;;9.82;4.28;;;10.20;99.90;;;;;;5058917;28;20140;-69
2023/04/27 07:40:51;;;;;;;11.02;4.57;;;10.30;99.90;;;;;;5058132;28;20024;-68
2023/04/27 07:43:17;;;;;;;15.13;4.35;;;10.30;99.90;;;;;;5058954;28;20025;-69
2023/04/27 07:45:42;;;;;;;9.48;4.28;;;10.40;99.90;;;;;;5058375;28;20093;-69
2023/04/27 07:48:09;;;;;;;10.80;4.38;;;10.50;99.90;;;;;;5057976;28;20029;-68
2023/04/27 07:50:35;;;;;;;8.07;3.92;;;10.60;99.90;;;;;;5057914;28;20028;-68
2023/04/27 07:53:00;;;;;;;10.75;4.30;;;10.70;99.90;;;;;;5057908;28;20031;-69
2023/04/27 07:55:26;;;;;;;10.50;4.07;;;10.80;99.90;;;;;;5058791;28;20021;-68
2023/04/27 07:57:53;;;;;;;12.15;4.20;;;10.90;99.90;;;;;;5058124;28;20031;-68
2023/04/27 08:00:19;;;;;;;10.63;4.43;;;10.90;99.90;;;;;;5058511;28;20029;-69
2023/04/27 08:02:44;;;;;;;8.48;3.70;;;11.00;99.90;;;;;;5058003;28;20098;-68
2023/04/27 08:05:10;;;;;;;9.50;4.15;;;11.10;99.90;;;;;;5057798;28;20033;-69
2023/04/27 08:07:36;;;;;;;8.00;4.63;;;11.20;99.90;;;;;;5057679;28;20036;-68
2023/04/27 08:10:02;;;;;;;10.43;4.00;;;11.20;99.90;;;;;;5057907;28;20021;-68
2023/04/27 08:12:27;;;;;;;8.13;4.32;;;11.20;99.90;;;;;;5057596;28;20025;-68
2023/04/27 08:14:53;;;;;;;12.07;4.30;;;11.20;99.90;;;;;;5057490;28;20024;-68
2023/04/27 08:17:20;;;;;;;11.27;4.30;;;11.20;99.90;;;;;;5058067;28;20047;-68
2023/04/27 08:19:46;;;;;;;20.38;5.30;;;11.20;99.90;;;;;;5058802;28;20024;-68
2023/04/27 08:22:11;;;;;;;15.90;4.35;;;11.20;99.90;;;;;;5057360;28;20021;-69
2023/04/27 08:24:37;;;;;;;11.18;4.22;;;11.30;99.90;;;;;;5057236;28;20060;-68
2023/04/27 08:27:02;;;;;;;7.05;3.70;;;11.40;99.90;;;;;;5058043;28;20108;-69
2023/04/27 08:29:28;;;;;;;8.65;4.18;;;11.50;99.90;;;;;;5058033;28;20096;-69
2023/04/27 08:31:54;;;;;;;9.65;3.80;;;11.60;99.90;;;;;;5057457;28;20119;-68
2023/04/27 08:34:19;;;;;;;7.93;3.63;;;11.70;99.90;;;;;;5058060;28;20021;-68
2023/04/27 08:36:45;;;;;;;9.07;3.65;;;11.80;99.90;;;;;;5058077;28;20112;-68
2023/04/27 08:39:10;;;;;;;18.00;3.85;;;11.80;99.90;;;;;;5057066;28;20025;-68
2023/04/27 08:41:42;;;;;;;10.15;4.28;;;11.90;99.90;;;;;;5057183;28;20017;-68
2023/04/27 08:44:07;;;;;;;5.00;3.63;;;12.10;99.90;;;;;;5057431;28;20048;-69
2023/04/27 08:46:33;;;;;;;5.80;3.20;;;12.10;99.90;;;;;;5057736;28;20037;-68
2023/04/27 08:48:58;;;;;;;3.97;2.80;;;12.30;99.90;;;;;;5056851;28;20036;-68
2023/04/27 08:51:26;;;;;;;11.95;3.38;;;12.40;99.90;;;;;;5058010;28;20025;-68
2023/04/27 08:53:56;;;;;;;7.95;3.28;;;12.50;99.90;;;;;;5056797;28;20032;-68
2023/04/27 08:56:24;;;;;;;9.23;3.25;;;12.60;99.90;;;;;;5057251;28;20021;-68
2023/04/27 08:58:50;;;;;;;8.52;3.13;;;12.50;99.90;;;;;;5056793;28;20028;-68
2023/04/27 09:01:16;;;;;;;6.13;3.78;;;12.50;99.90;;;;;;5056799;28;20031;-68
2023/04/27 09:03:45;;;;;;;10.68;4.82;;;12.60;99.90;;;;;;5056904;28;20099;-67
2023/04/27 09:06:11;;;;;;;10.40;3.53;;;12.70;99.90;;;;;;5057435;28;20021;-68
2023/04/27 09:08:47;;;;;;;7.88;4.28;;;12.70;99.90;;;;;;5056459;28;20029;-68
2023/04/27 09:11:14;;;;;;;9.68;3.72;;;12.60;99.90;;;;;;5056688;28;20025;-68
2023/04/27 09:13:43;;;;;;;8.93;3.42;;;12.70;99.90;;;;;;5057196;28;20024;-67
2023/04/27 09:16:12;;;;;;;16.27;4.40;;;12.70;99.90;;;;;;5057201;28;20112;-68
2023/04/27 09:18:41;;;;;;;8.65;3.65;;;12.80;99.90;;;;;;5056302;28;20032;-68
2023/04/27 09:21:06;;;;;;;8.35;3.50;;;13.10;99.90;;;;;;5056658;28;20049;-68
2023/04/27 09:23:37;;;;;;;10.02;3.63;;;12.90;99.90;;;;;;5056583;28;20064;-68
2023/04/27 09:26:07;;;;;;;5.15;3.40;;;12.90;99.90;;;;;;5056145;28;20057;-68
2023/04/27 09:28:34;;;;;;;7.15;3.90;;;13.20;99.90;;;;;;5056487;28;20032;-68
2023/04/27 09:31:03;;;;;;;9.63;3.88;;;13.50;99.90;;;;;;5057128;28;20025;-68
2023/04/27 09:33:34;;;;;;;7.13;3.50;;;13.70;99.90;;;;;;5056966;28;20078;-68
2023/04/27 09:36:02;;;;;;;4.28;2.97;;;13.60;99.90;;;;;;5056466;28;20119;-69
2023/04/27 09:38:28;;;;;;;10.40;3.20;;;13.30;99.90;;;;;;5056052;28;20029;-68
2023/04/27 09:40:55;;;;;;;8.95;3.45;;;13.30;99.90;;;;;;5056079;28;20021;-68
2023/04/27 09:43:22;;;;;;;11.23;3.20;;;13.20;99.90;;;;;;5055988;28;20108;-69
2023/04/27 09:45:48;;;;;;;8.15;3.17;;;13.20;99.90;;;;;;5056004;28;20053;-68
2023/04/27 09:48:14;;;;;;;5.95;2.80;;;13.50;99.90;;;;;;5057143;28;20029;-68
2023/04/27 09:50:43;;;;;;;11.82;3.90;;;13.60;99.90;;;;;;5055834;28;20025;-68
2023/04/27 09:53:14;;;;;;;9.40;3.80;;;13.60;99.90;;;;;;5055889;28;20029;-68
2023/04/27 09:55:42;;;;;;;8.88;3.00;;;13.90;99.90;;;;;;5056397;28;20029;-68
2023/04/27 09:58:50;;;;;;;6.68;3.25;;;14.00;99.90;;;;;;5056124;28;20029;-68
2023/04/27 10:01:46;;;;;;;11.75;4.18;;;14.30;99.90;;;;;;5056020;28;20060;-68
2023/04/27 10:04:33;;;;;;;6.22;3.50;;;14.00;99.90;;;;;;5055789;28;20021;-68
2023/04/27 10:07:13;;;;;;;8.25;3.42;;;14.60;98.70;;;;;;5056266;28;20083;-70
2023/04/27 10:09:41;;;;;;;10.40;3.20;;;14.70;99.50;;;;;;5055799;28;20151;-71
2023/04/27 10:12:20;;;;;;;5.53;3.33;;;14.60;98.10;;;;;;5056647;28;20025;-71
2023/04/27 10:14:57;;;;;;;6.22;3.67;;;14.40;98.20;;;;;;5057667;28;20055;-71
2023/04/27 10:17:25;;;;;;;6.30;3.67;;;14.40;98.10;;;;;;5059692;28;20110;-68
2023/04/27 10:20:08;;;;;;;5.43;3.10;;;14.60;99.90;;;;;;5059761;28;20048;-68
2023/04/27 10:22:45;;;;;;;11.57;3.85;;;14.80;97.90;;;;;;5060560;28;20017;-68
2023/04/27 10:25:24;;;;;;;6.75;3.22;;;15.10;97.30;;;;;;5059628;28;20020;-69
2023/04/27 10:27:53;;;;;;;8.18;3.50;;;15.40;96.50;;;;;;5060610;28;20025;-71
2023/04/27 10:30:21;;;;;;;6.30;3.63;;;15.70;95.20;;;;;;5060396;28;20028;-71
2023/04/27 10:32:55;;;;;;;13.95;4.05;;;15.70;95.20;;;;;;5060014;28;20035;-71
2023/04/27 10:35:31;;;;;;;8.35;4.43;;;16.50;93.20;;;;;;5060376;28;20036;-71
2023/04/27 10:38:05;;;;;;;11.77;3.33;;;15.90;93.20;;;;;;5060254;28;20075;-71
2023/04/27 10:40:33;;;;;;;9.27;3.55;;;15.40;94.40;;;;;;5060475;28;20021;-71
2023/04/27 10:43:08;;;;;;;11.18;4.32;;;15.50;94.50;;;;;;5060162;28;20036;-71
2023/04/27 10:45:33;;;;;;;10.55;3.60;;;15.50;94.00;;;;;;5060259;28;20092;-71
2023/04/27 10:48:00;;;;;;;8.02;3.28;;;16.00;94.70;;;;;;5059669;28;20056;-71
2023/04/27 10:50:27;;;;;;;6.57;3.38;;;16.20;96.60;;;;;;5059892;28;20021;-71
2023/04/27 10:52:52;;;;;;;8.77;3.97;;;16.50;94.50;;;;;;5059646;28;20100;-71
2023/04/27 10:55:20;;;;;;;9.55;3.35;;;16.60;93.80;;;;;;5060026;28;20069;-71
2023/04/27 10:57:53;;;;;;;10.85;4.07;;;16.70;93.40;;;;;;5059791;28;20021;-71
2023/04/27 11:00:30;;;;;;;15.18;4.00;;;17.00;92.90;;;;;;5059050;28;20110;-71
2023/04/27 11:03:18;;;;;;;8.25;3.67;;;16.90;93.20;;;;;;5059006;28;20057;-71
2023/04/27 11:05:45;;;;;;;7.05;4.10;;;16.80;92.90;;;;;;5059686;28;20021;-71
2023/04/27 11:08:16;;;;;;;11.45;5.13;;;16.80;95.10;;;;;;5059277;28;20029;-71
2023/04/27 11:10:45;;;;;;;8.97;3.90;;;17.10;93.00;;;;;;5059605;28;20025;-71
2023/04/27 11:13:12;;;;;;;8.80;4.25;;;17.40;94.60;;;;;;5059521;28;20274;-71
2023/04/27 11:15:56;;;;;;;9.25;3.97;;;17.80;95.40;;;;;;5059413;28;20121;-71
2023/04/27 11:18:25;;;;;;;5.13;3.80;;;17.50;93.10;;;;;;5059504;28;20067;-71
2023/04/27 11:21:06;;;;;;;8.88;4.75;;;17.80;94.50;;;;;;5058626;28;20032;-71
2023/04/27 11:23:38;;;;;;;8.18;4.45;;;18.10;94.20;;;;;;5058597;28;20028;-71
2023/04/27 11:26:18;;;;;;;7.90;4.45;;;18.30;93.40;;;;;;5058419;28;20025;-71
2023/04/27 11:28:57;;;;;;;11.50;4.95;;;18.50;95.50;;;;;;5058380;28;20021;-71
2023/04/27 11:31:23;;;;;;;12.43;6.10;;;18.60;96.00;;;;;;5058495;28;20052;-71
2023/04/27 11:33:49;;;;;;;9.50;4.40;;;18.50;90.50;;;;;;5058451;28;20106;-71
2023/04/27 11:36:16;;;;;;;7.07;4.47;;;18.40;92.40;;;;;;5059292;28;20028;-71
2023/04/27 11:38:42;;;;;;;10.07;4.78;;;18.30;92.40;;;;;;5058159;28;20032;-72
2023/04/27 11:41:08;;;;;;;9.75;4.15;;;18.50;91.80;;;;;;5058372;28;20021;-72
2023/04/27 11:43:35;;;;;;;10.70;4.72;;;18.80;92.20;;;;;;5058576;28;20029;-70
2023/04/27 11:46:03;;;;;;;9.15;4.93;;;19.00;91.70;;;;;;5072115;22;20042;-70
2023/04/27 11:48:29;;;;;;;10.32;5.15;;;18.90;86.90;;;;;;5021811;28;20108;-70
2023/04/27 11:50:57;;;;;;;8.07;4.47;;;18.80;88.10;;;;;;5021575;28;20033;-71
2023/04/27 11:53:35;;;;;;;9.65;4.47;;;19.10;90.80;;;;;;5022409;28;20033;-71
2023/04/27 11:56:06;;;;;;;9.07;4.38;;;19.40;85.00;;;;;;5021507;28;20116;-71
2023/04/27 11:58:32;;;;;;;;;;;19.00;90.00;;;;;;5039214;28;20060;-70
2023/04/27 12:00:58;;;;;;;8.50;4.35;;;18.60;84.10;;;;;;5038808;28;19905;-70
2023/04/27 12:03:24;;;;;;;9.98;4.18;;;18.60;85.50;;;;;;5022370;28;20124;-72
2023/04/27 12:05:51;;;;;;;9.05;4.18;;;18.90;88.80;;;;;;5021978;28;20112;-72
2023/04/27 12:08:17;;;;;;;9.20;4.55;;;19.30;87.30;;;;;;5021687;28;20060;-71
2023/04/27 12:10:44;;;;;;;8.40;4.20;;;19.40;83.40;;;;;;5039107;28;20026;-71
2023/04/27 12:13:10;;;;;;;9.40;3.90;;;19.50;87.20;;;;;;5021136;28;20025;-71
2023/04/27 12:15:36;;;;;;;11.57;4.32;;;19.80;88.10;;;;;;5020812;28;20026;-72
2023/04/27 12:18:01;;;;;;;7.68;4.28;;;19.60;81.90;;;;;;5021310;28;20032;-71
2023/04/27 12:20:27;;;;;;;8.05;4.30;;;19.60;84.50;;;;;;5021362;28;20025;-71
2023/04/27 12:22:53;;;;;;;6.40;3.60;;;20.00;85.20;;;;;;5022196;28;20088;-71
2023/04/27 12:25:19;;;;;;;7.93;4.07;;;20.30;80.50;;;;;;5021347;28;20038;-71
2023/04/27 12:27:46;;;;;;;8.57;3.55;;;20.70;80.70;;;;;;5021160;28;20048;-73
2023/04/27 12:30:13;;;;;;;9.05;4.75;;;21.20;77.80;;;;;;5021723;28;20028;-73
2023/04/27 12:32:39;;;;;;;9.73;4.90;;;21.30;80.00;;;;;;5020764;28;20033;-73
2023/04/27 12:35:06;;;;;;;11.43;4.68;;;21.20;82.20;;;;;;5021245;28;20056;-73
2023/04/27 12:37:32;;;;;;;12.07;4.50;;;20.80;75.00;;;;;;5019763;28;20025;-73
2023/04/27 12:39:57;;;;;;;9.48;4.10;;;20.60;78.40;;;;;;5038179;28;20028;-73
2023/04/27 12:42:23;;;;;;;8.02;4.03;;;21.10;82.90;;;;;;5020774;28;20021;-73
2023/04/27 12:44:52;;;;;;;9.35;3.70;;;20.80;73.50;;;;;;5020840;28;20021;-73
2023/04/27 12:47:20;;;;;;;10.60;4.20;;;21.00;76.60;;;;;;5020928;28;20033;-73
2023/04/27 12:49:46;;;;;;;10.95;4.97;;;21.20;79.70;;;;;;5020329;28;20049;-73